Time;durP1;ratioP1;P1;durP2;ratioP2;P2;SDS_P1;SDS_P2;PMS_P1;PMS_P2;Temp;Humidity;BMP_temperature;BMP_pressure;BME280_temperature;BME280_humidity;BME280_pressure;Samples;Min_cycle;Max_cycle;Signal;HPM_P1;HPM_P2
2021/12/16 00:07:13;;;;;;;16.80;11.52;;;;;;;15.86;44.57;94669.00;5062603;28;20730;-88
2021/12/16 00:29:06;;;;;;;12.90;9.05;;;;;;;15.81;45.16;94645.09;5034553;28;20048;-88
2021/12/16 00:34:04;;;;;;;19.13;13.55;;;;;;;15.80;45.05;94644.34;5045812;28;20484;-88
2021/12/16 00:36:32;;;;;;;13.18;9.55;;;;;;;15.82;44.87;94654.78;5028519;28;20067;-88
2021/12/16 00:38:58;;;;;;;14.32;9.18;;;;;;;15.82;44.86;94658.25;5062673;28;20058;-88
2021/12/16 00:41:23;;;;;;;9.98;6.63;;;;;;;15.79;44.77;94653.00;5066608;28;20040;-88
2021/12/16 00:43:58;;;;;;;9.88;7.13;;;;;;;15.82;44.57;94654.78;5068557;28;20031;-89
2021/12/16 00:55:03;;;;;;;14.55;9.52;;;;;;;15.83;44.70;94664.47;4963581;28;20085;-88
2021/12/16 00:57:29;;;;;;;12.40;8.65;;;;;;;15.81;45.09;94669.63;4978811;28;20560;-88
2021/12/16 00:59:56;;;;;;;11.18;7.18;;;;;;;15.85;44.75;94667.47;4951081;28;20046;-88
2021/12/16 01:05:18;;;;;;;;;;;;;;;;;;;;;
2021/12/16 01:07:53;;;;;;;17.55;11.43;;;;;;;15.82;44.93;94674.59;4948308;28;20045;-88
2021/12/16 01:46:33;;;;;;;16.77;10.90;;;;;;;15.77;44.36;94656.19;5041461;28;20056;-88
2021/12/16 01:52:02;;;;;;;12.63;8.50;;;;;;;15.73;44.96;94669.97;4915097;29;20464;-88
2021/12/16 01:57:12;;;;;;;9.77;6.30;;;;;;;15.79;44.72;94672.06;4924701;29;20036;-88
2021/12/16 01:59:40;;;;;;;11.90;7.90;;;;;;;15.81;45.14;94658.72;4937136;29;20052;-89
2021/12/16 02:02:15;;;;;;;10.52;6.90;;;;;;;15.82;44.70;94652.78;4919590;29;20058;-89
2021/12/16 02:05:05;;;;;;;10.27;7.50;;;;;;;15.80;45.11;94643.59;4920644;29;20047;-88
2021/12/16 02:07:53;;;;;;;13.93;8.57;;;;;;;15.85;44.85;94651.13;4910286;29;20047;-88
2021/12/16 02:10:16;;;;;;;9.75;5.50;;;;;;;15.80;44.56;94657.97;4935441;29;20473;-89
2021/12/16 02:36:25;;;;;;;10.65;6.82;;;;;;;15.84;44.78;94652.34;5011588;28;20049;-89
2021/12/16 02:38:53;;;;;;;11.43;5.93;;;;;;;15.84;44.61;94650.38;5006780;28;20336;-90
2021/12/16 02:41:19;;;;;;;14.43;8.75;;;;;;;15.75;44.86;94643.00;4988645;28;20054;-87
2021/12/16 02:48:43;;;;;;;17.30;9.27;;;;;;;15.76;45.05;94641.03;5003528;28;20492;-88
2021/12/16 02:51:20;;;;;;;11.75;7.72;;;;;;;15.78;44.75;94646.78;5000951;28;20112;-88
2021/12/16 02:53:48;;;;;;;7.75;5.10;;;;;;;15.82;44.61;94644.63;4983189;28;20489;-91
2021/12/16 02:56:13;;;;;;;11.32;7.80;;;;;;;15.86;44.44;94636.28;5022021;28;20057;-93
2021/12/16 02:58:40;;;;;;;6.72;5.38;;;;;;;15.87;44.72;94637.78;5037871;28;20042;-88
2021/12/16 03:01:14;;;;;;;8.13;4.93;;;;;;;15.82;44.66;94635.69;5002023;28;20514;-88
2021/12/16 03:03:40;;;;;;;9.25;6.18;;;;;;;15.83;44.66;94634.47;5000239;28;20492;-88
2021/12/16 03:06:06;;;;;;;11.57;7.20;;;;;;;15.86;44.60;94628.84;4973351;28;20036;-87
2021/12/16 03:08:33;;;;;;;7.70;5.68;;;;;;;15.89;44.53;94629.88;4988292;28;20049;-88
2021/12/16 03:11:06;;;;;;;7.78;5.20;;;;;;;15.86;44.61;94628.09;5009895;28;20041;-88
2021/12/16 03:13:37;;;;;;;7.22;4.95;;;;;;;15.88;44.71;94628.38;4995261;28;20401;-93
2021/12/16 03:16:13;;;;;;;10.13;6.93;;;;;;;15.82;44.70;94632.97;5008687;28;20029;-88
2021/12/16 03:18:48;;;;;;;7.72;5.43;;;;;;;15.83;44.42;94640.66;5007728;28;20046;-88
2021/12/16 03:21:20;;;;;;;10.70;7.35;;;;;;;15.83;44.43;94631.75;5004435;28;20043;-88
2021/12/16 03:38:49;;;;;;;14.98;9.10;;;;;;;15.79;44.68;94656.47;5022817;28;20172;-88
2021/12/16 03:41:14;;;;;;;8.77;5.47;;;;;;;15.75;44.90;94658.63;5001895;28;20018;-88
2021/12/16 03:43:40;;;;;;;13.23;7.82;;;;;;;15.73;44.86;94661.03;5010973;23;20030;-88
2021/12/16 03:48:46;;;;;;;8.07;4.82;;;;;;;15.75;44.78;94673.00;5043105;28;20047;-88
2021/12/16 03:51:18;;;;;;;9.00;5.93;;;;;;;15.77;44.94;94667.09;5040027;28;20551;-88
2021/12/16 03:53:44;;;;;;;14.82;9.25;;;;;;;15.74;45.05;94681.63;5022075;28;20163;-88
2021/12/16 03:56:10;;;;;;;8.02;6.15;;;;;;;15.73;44.71;94680.13;5004103;28;20029;-88
2021/12/16 03:58:36;;;;;;;5.00;3.70;;;;;;;15.74;44.72;94681.63;5003131;28;20543;-88
2021/12/16 04:01:02;;;;;;;9.65;6.03;;;;;;;15.76;44.79;94690.13;5004195;28;20128;-89
2021/12/16 04:03:28;;;;;;;9.80;6.60;;;;;;;15.77;44.72;94691.63;5000256;28;20036;-88
2021/12/16 04:05:53;;;;;;;18.75;11.73;;;;;;;15.70;44.93;94700.13;5058994;28;20037;-90
2021/12/16 04:08:19;;;;;;;7.25;5.13;;;;;;;15.73;44.77;94697.25;5003535;28;20051;-88
2021/12/16 04:10:52;;;;;;;10.65;6.72;;;;;;;15.70;44.70;94706.34;5021092;28;20037;-87
2021/12/16 04:13:19;;;;;;;16.17;10.55;;;;;;;15.71;44.82;94713.31;5038798;28;20033;-88
2021/12/16 04:15:44;;;;;;;8.95;5.75;;;;;;;15.73;45.11;94710.13;5039228;28;20037;-88
2021/12/16 04:18:09;;;;;;;9.32;6.13;;;;;;;15.76;44.58;94709.19;5008222;28;20040;-89
2021/12/16 04:20:35;;;;;;;10.32;6.57;;;;;;;15.79;44.49;94696.63;5022218;28;20044;-88
2021/12/16 04:23:01;;;;;;;10.82;7.03;;;;;;;15.77;44.99;94686.94;5022637;28;20120;-88
2021/12/16 04:25:31;;;;;;;7.93;4.60;;;;;;;15.80;44.56;94689.94;5038339;28;20399;-87
2021/12/16 04:28:05;;;;;;;6.07;4.22;;;;;;;15.78;44.62;94682.22;5015736;28;20057;-88
2021/12/16 04:30:30;;;;;;;7.80;5.78;;;;;;;15.82;44.84;94684.75;5001897;28;20034;-88
2021/12/16 04:32:56;;;;;;;13.10;8.23;;;;;;;15.81;44.69;94680.53;4988248;28;20081;-89
2021/12/16 04:35:21;;;;;;;6.07;4.65;;;;;;;15.77;44.85;94676.03;5018022;28;20052;-88
2021/12/16 04:37:47;;;;;;;17.55;10.20;;;;;;;15.77;44.96;94686.16;5005260;28;20041;-88
2021/12/16 04:40:13;;;;;;;8.50;5.68;;;;;;;15.82;44.66;94684.75;5034956;28;20066;-88
2021/12/16 04:42:39;;;;;;;8.60;6.38;;;;;;;15.76;44.70;94690.13;5010103;28;20086;-90
2021/12/16 04:45:06;;;;;;;5.90;4.32;;;;;;;15.76;44.77;94693.59;5030972;23;20029;-86
2021/12/16 04:47:31;;;;;;;11.23;8.20;;;;;;;15.69;44.55;94691.19;5044704;28;20077;-89
2021/12/16 04:49:56;;;;;;;7.35;5.00;;;;;;;15.78;44.62;94701.31;5058889;28;20491;-92
2021/12/16 04:52:22;;;;;;;8.90;6.28;;;;;;;15.70;44.87;94694.69;5054282;28;20513;-88
2021/12/16 04:54:47;;;;;;;7.57;4.47;;;;;;;15.77;44.83;94705.25;5037870;28;20063;-90
2021/12/16 04:57:13;;;;;;;13.43;7.07;;;;;;;15.78;44.38;94701.31;5026066;23;20059;-88
2021/12/16 04:59:39;;;;;;;11.52;6.18;;;;;;;15.74;44.91;94717.84;5031324;28;20053;-91
2021/12/16 05:02:10;;;;;;;8.73;5.82;;;;;;;15.79;44.62;94708.28;5029956;28;20041;-86
2021/12/16 05:04:36;;;;;;;8.32;4.45;;;;;;;15.73;44.85;94713.59;5016105;28;20091;-93
2021/12/16 05:07:01;;;;;;;6.80;4.25;;;;;;;15.81;44.53;94710.50;5050641;28;20041;-88
2021/12/16 05:12:08;;;;;;;14.35;8.02;;;;;;;15.81;44.83;94707.78;5032139;28;20079;-88
2021/12/16 05:14:36;;;;;;;11.80;7.38;;;;;;;15.73;44.51;94708.16;5019763;28;20029;-89
2021/12/16 05:17:06;;;;;;;7.57;4.82;;;;;;;15.74;44.52;94708.91;5029262;28;20052;-88
2021/12/16 05:19:32;;;;;;;12.85;5.65;;;;;;;15.76;44.85;94709.94;5014139;28;20037;-89
2021/12/16 05:24:15;;;;;;;13.20;8.10;;;;;;;15.74;44.87;94711.63;5049839;28;20089;-87
2021/12/16 05:24:46;;;;;;;11.30;7.80;;;;;;;15.71;44.76;94709.81;5015780;28;20460;-88
2021/12/16 05:27:11;;;;;;;19.33;7.35;;;;;;;15.76;44.49;94714.66;5026863;28;20491;-87
2021/12/16 05:29:39;;;;;;;7.85;5.28;;;;;;;15.82;44.70;94725.66;5011348;28;20042;-86
2021/12/16 05:32:05;;;;;;;235.88;183.75;;;;;;;15.88;44.93;94727.31;5003451;28;20044;-91
2021/12/16 05:34:31;;;;;;;302.60;252.05;;;;;;;16.01;45.13;94722.41;5026845;28;20476;-86
2021/12/16 05:36:57;;;;;;;20.35;15.85;;;;;;;16.10;44.44;94735.22;5029625;28;20042;-90
2021/12/16 05:39:22;;;;;;;62.53;33.70;;;;;;;16.10;44.46;94738.69;5028640;28;20042;-87
2021/12/16 05:41:48;;;;;;;21.08;13.75;;;;;;;16.07;44.29;94731.44;5031791;28;20063;-88
2021/12/16 05:44:14;;;;;;;12.85;8.90;;;;;;;16.06;44.33;94748.25;5009938;28;20033;-87
2021/12/16 05:46:40;;;;;;;19.17;13.25;;;;;;;16.07;44.44;94756.00;5020493;28;20052;-90
2021/12/16 05:49:07;;;;;;;19.83;12.30;;;;;;;15.93;44.49;94753.94;5022535;28;20052;-90
2021/12/16 05:51:35;;;;;;;37.88;23.30;;;;;;;15.93;44.40;94755.91;5044777;28;20029;-88
2021/12/16 05:54:02;;;;;;;31.08;13.77;;;;;;;16.02;44.31;94755.88;5041680;28;20053;-89
2021/12/16 05:56:27;;;;;;;25.38;11.95;;;;;;;15.95;44.69;94765.16;5008448;28;20049;-87
2021/12/16 05:58:55;;;;;;;30.52;15.57;;;;;;;15.96;44.41;94760.44;5001522;28;20038;-88
2021/12/16 06:01:26;;;;;;;30.17;15.10;;;;;;;15.94;44.76;94760.16;5028411;23;20052;-89
2021/12/16 06:03:53;;;;;;;36.92;15.57;;;;;;;15.95;44.32;94762.41;5055192;28;20076;-89
2021/12/16 06:06:18;;;;;;;19.90;13.27;;;;;;;15.91;43.94;94763.81;5033862;28;20065;-88
2021/12/16 06:08:46;;;;;;;38.95;14.60;;;;;;;15.82;42.62;94770.03;5044088;28;20037;-86
2021/12/16 06:11:16;;;;;;;38.72;17.40;;;;;;;15.81;42.76;94765.03;5040835;28;20052;-88
2021/12/16 06:13:56;;;;;;;38.30;18.35;;;;;;;15.84;43.11;94772.31;5042993;28;20041;-95
2021/12/16 06:27:13;;;;;;;63.03;25.05;;;;;;;15.85;42.78;94784.72;5045418;28;20094;-90
2021/12/16 06:29:40;;;;;;;81.95;37.65;;;;;;;15.82;42.71;94772.75;5040139;28;20077;-90
2021/12/16 06:32:06;;;;;;;65.68;31.45;;;;;;;15.77;43.38;94785.06;5053792;28;20037;-87
2021/12/16 06:34:32;;;;;;;62.45;32.25;;;;;;;15.76;43.24;94791.75;5056565;28;20492;-90
2021/12/16 06:36:58;;;;;;;66.85;34.35;;;;;;;15.80;43.19;94788.09;5039314;28;20040;-88
2021/12/16 06:39:24;;;;;;;79.10;35.75;;;;;;;15.79;43.73;94792.78;5038633;28;20119;-88
2021/12/16 06:41:49;;;;;;;87.32;35.75;;;;;;;15.89;43.54;94796.22;5054605;28;20123;-91
2021/12/16 06:44:24;;;;;;;76.25;35.10;;;;;;;15.83;43.69;94784.44;5027100;28;20013;-90
2021/12/16 06:46:55;;;;;;;65.85;33.17;;;;;;;15.85;44.00;94785.47;5034705;28;20029;-94
2021/12/16 06:49:22;;;;;;;67.25;33.28;;;;;;;15.82;43.79;94797.31;5030483;28;20498;-93
2021/12/16 06:54:32;;;;;;;97.13;39.10;;;;;;;15.88;43.86;94798.19;5037287;28;20037;-92
2021/12/16 06:59:34;;;;;;;145.55;57.40;;;;;;;15.98;43.56;94798.94;5032040;28;20127;-88
2021/12/16 07:02:09;;;;;;;153.23;81.78;;;;;;;16.04;43.70;94799.78;5016845;28;20064;-90
2021/12/16 07:04:35;;;;;;;128.80;57.95;;;;;;;16.07;43.40;94807.06;5014527;28;20049;-91
2021/12/16 07:07:01;;;;;;;239.50;158.77;;;;;;;16.07;43.53;94815.25;5017951;28;20037;-86
2021/12/16 07:09:26;;;;;;;127.70;67.78;;;;;;;16.03;43.54;94811.91;5007376;28;20403;-88
2021/12/16 07:11:53;;;;;;;119.18;52.78;;;;;;;16.06;43.35;94800.09;5030354;28;20045;-88
2021/12/16 07:14:23;;;;;;;142.13;55.28;;;;;;;16.14;43.83;94806.72;5009752;28;20399;-88
2021/12/16 07:16:50;;;;;;;145.38;57.95;;;;;;;16.05;43.58;94802.06;5019911;28;20480;-89
2021/12/16 07:19:16;;;;;;;115.43;51.63;;;;;;;16.08;43.31;94814.03;5013093;28;20061;-89
2021/12/16 07:21:42;;;;;;;141.57;54.85;;;;;;;16.06;43.52;94821.91;5017072;28;20056;-87
2021/12/16 07:24:10;;;;;;;131.18;56.33;;;;;;;16.08;43.41;94819.47;5018815;28;20045;-89
2021/12/16 07:26:36;;;;;;;91.05;36.17;;;;;;;15.94;41.68;94825.59;5037227;28;20045;-89
2021/12/16 07:29:02;;;;;;;95.00;40.47;;;;;;;15.85;42.47;94815.47;5026102;28;20037;-89
2021/12/16 07:31:28;;;;;;;116.07;46.05;;;;;;;15.88;42.65;94813.81;5024723;28;20384;-89
2021/12/16 07:33:55;;;;;;;109.25;44.17;;;;;;;15.88;42.59;94825.47;5021510;28;20045;-89
2021/12/16 07:36:21;;;;;;;94.82;44.42;;;;;;;15.91;42.81;94821.06;5013815;28;20555;-89
2021/12/16 07:38:47;;;;;;;108.22;45.83;;;;;;;15.89;42.91;94826.97;5022701;28;20090;-92
2021/12/16 07:41:13;;;;;;;115.30;53.58;;;;;;;15.88;43.50;94825.47;5018012;28;20303;-91
2021/12/16 07:46:07;;;;;;;175.43;72.63;;;;;;;15.97;43.51;94821.97;5032606;28;20526;-89
2021/12/16 07:48:33;;;;;;;180.63;87.38;;;;;;;15.97;43.34;94822.72;5018688;28;20038;-87
2021/12/16 07:50:59;;;;;;;179.23;87.55;;;;;;;15.91;43.40;94812.88;5032255;28;20032;-89
2021/12/16 07:53:25;;;;;;;155.07;80.68;;;;;;;15.94;43.59;94822.88;5018831;28;20100;-88
2021/12/16 07:55:50;;;;;;;172.07;88.32;;;;;;;15.90;43.10;94819.56;5013268;28;20037;-87
2021/12/16 07:58:16;;;;;;;172.70;87.70;;;;;;;15.90;43.37;94825.78;5009577;28;20179;-89
2021/12/16 08:00:41;;;;;;;200.55;105.65;;;;;;;15.90;43.63;94825.78;4979730;28;20049;-89
2021/12/16 08:03:09;;;;;;;246.20;138.23;;;;;;;16.03;43.12;94822.84;5011525;28;20037;-87
2021/12/16 08:05:38;;;;;;;270.35;148.63;;;;;;;16.04;43.32;94830.56;5002609;28;20103;-90
2021/12/16 08:08:05;;;;;;;249.10;137.57;;;;;;;15.97;43.48;94824.69;5032401;28;20046;-88
2021/12/16 08:10:31;;;;;;;289.85;159.75;;;;;;;16.01;43.40;94828.00;5016843;28;20347;-88
2021/12/16 08:13:05;;;;;;;280.50;158.68;;;;;;;15.99;43.26;94830.44;5002277;28;20034;-88
2021/12/16 08:15:30;;;;;;;355.85;199.82;;;;;;;16.01;43.44;94836.19;5012654;28;20041;-89
2021/12/16 08:17:58;;;;;;;334.02;189.98;;;;;;;15.98;43.32;94835.16;5006097;28;20046;-86
2021/12/16 08:20:23;;;;;;;345.10;184.82;;;;;;;16.02;43.20;94840.44;5017573;28;20116;-88
2021/12/16 08:22:50;;;;;;;427.45;219.73;;;;;;;16.00;43.49;94842.88;5019640;28;20061;-90
2021/12/16 08:25:17;;;;;;;386.70;215.27;;;;;;;16.03;43.45;94839.94;5021601;28;20047;-91
2021/12/16 08:27:48;;;;;;;434.05;236.32;;;;;;;15.98;43.43;94832.41;5026482;28;20048;-91
2021/12/16 08:30:16;;;;;;;402.92;226.85;;;;;;;16.00;43.25;94837.41;5020391;28;20057;-91
2021/12/16 08:32:41;;;;;;;417.38;233.90;;;;;;;16.05;43.48;94840.25;4999511;28;20408;-88
2021/12/16 08:35:07;;;;;;;419.27;235.25;;;;;;;16.02;43.97;94832.25;5033086;28;20030;-88
2021/12/16 08:37:33;;;;;;;494.17;287.70;;;;;;;16.00;43.46;94835.44;5032151;28;20113;-86
2021/12/16 08:40:01;;;;;;;504.58;294.02;;;;;;;16.02;43.75;94843.16;5035111;28;20037;-89
2021/12/16 08:42:27;;;;;;;505.48;287.98;;;;;;;15.98;43.56;94846.06;5033958;28;20037;-92
2021/12/16 08:44:52;;;;;;;488.58;278.10;;;;;;;15.98;43.84;94848.78;5018587;28;20116;-91
2021/12/16 08:47:19;;;;;;;500.95;300.88;;;;;;;16.09;43.68;94845.53;4997445;28;20294;-88
2021/12/16 08:49:44;;;;;;;473.27;287.27;;;;;;;16.05;43.77;94850.41;5020324;28;20037;-89
2021/12/16 08:52:15;;;;;;;512.83;296.83;;;;;;;16.02;43.38;94846.63;5020315;28;20049;-91
2021/12/16 08:54:43;;;;;;;;;;;;;;;16.06;43.71;94852.66;5002883;28;20513;-87
2021/12/16 08:57:08;;;;;;;583.50;348.27;;;;;;;16.03;43.41;94852.84;5018458;28;20216;-91
2021/12/16 08:59:34;;;;;;;535.58;314.42;;;;;;;16.04;43.29;94857.84;5003777;28;20041;-87
2021/12/16 09:02:00;;;;;;;483.52;295.58;;;;;;;16.00;43.82;94856.50;5020594;28;20042;-92
2021/12/16 09:04:26;;;;;;;419.38;237.63;;;;;;;16.13;43.82;94851.59;5010787;28;20128;-89
2021/12/16 09:07:00;;;;;;;499.73;284.20;;;;;;;16.06;43.59;94852.66;4990190;28;20048;-93
2021/12/16 09:09:25;;;;;;;550.50;352.90;;;;;;;16.08;43.60;94847.50;4998507;28;20056;-88
2021/12/16 09:12:11;;;;;;;491.67;300.00;;;;;;;16.11;43.61;94854.78;5032458;28;20037;-87
2021/12/16 09:14:37;;;;;;;446.52;276.80;;;;;;;16.18;43.71;94864.63;4999763;28;20518;-90
2021/12/16 09:17:09;;;;;;;431.30;266.15;;;;;;;16.23;43.29;94855.81;5014389;28;20045;-90
2021/12/16 09:19:37;;;;;;;433.50;268.67;;;;;;;16.19;43.13;94859.91;5007219;28;20065;-89
2021/12/16 09:22:05;;;;;;;442.92;277.73;;;;;;;16.18;43.22;94863.88;5029969;28;20034;-90
2021/12/16 09:24:30;;;;;;;394.73;250.60;;;;;;;16.13;43.58;94865.25;4996610;28;20042;-85
2021/12/16 09:26:56;;;;;;;260.13;149.77;;;;;;;16.05;40.99;94859.34;5009035;28;20092;-87
2021/12/16 09:29:21;;;;;;;263.30;145.82;;;;;;;15.88;40.88;94869.09;4997095;28;20258;-87
2021/12/16 09:31:53;;;;;;;250.48;129.75;;;;;;;15.98;40.62;94864.38;5011856;28;20065;-88
2021/12/16 09:34:18;;;;;;;260.85;138.50;;;;;;;15.94;40.49;94867.28;5025094;28;20038;-87
2021/12/16 09:36:45;;;;;;;269.70;146.77;;;;;;;15.93;40.94;94876.66;5025173;28;20108;-88
2021/12/16 09:39:16;;;;;;;283.33;160.13;;;;;;;15.96;41.62;94872.28;5004764;28;20039;-87
2021/12/16 09:41:43;;;;;;;319.15;177.95;;;;;;;15.93;42.37;94854.84;5000792;28;20049;-88
2021/12/16 09:44:16;;;;;;;359.48;216.10;;;;;;;15.95;42.34;94870.75;5036840;28;20032;-89
2021/12/16 09:46:48;;;;;;;544.75;303.70;;;;;;;15.96;42.24;94862.13;5027236;28;20041;-88
2021/12/16 09:49:16;;;;;;;306.73;185.68;;;;;;;15.91;42.04;94862.72;4987174;28;20040;-92
2021/12/16 09:51:45;;;;;;;294.80;159.85;;;;;;;16.01;42.60;94866.19;5001717;28;20120;-91
2021/12/16 09:54:14;;;;;;;371.05;216.60;;;;;;;15.95;43.00;94876.97;5022936;28;20036;-92
2021/12/16 09:56:42;;;;;;;361.85;210.30;;;;;;;16.04;42.62;94879.66;5030865;28;20069;-88
2021/12/16 09:59:10;;;;;;;349.83;202.15;;;;;;;16.01;42.88;94879.84;5032991;28;20596;-92
2021/12/16 10:01:36;;;;;;;320.40;188.32;;;;;;;16.02;43.67;94878.63;5019476;28;20054;-90
2021/12/16 10:04:04;;;;;;;338.67;200.65;;;;;;;16.01;43.62;94882.56;5035181;28;20108;-89
2021/12/16 10:06:31;;;;;;;343.25;207.02;;;;;;;15.99;43.49;94874.84;5029765;28;20042;-88
2021/12/16 10:09:04;;;;;;;325.63;190.48;;;;;;;16.08;44.00;94871.31;4994348;28;20050;-90
2021/12/16 10:11:31;;;;;;;332.98;209.20;;;;;;;15.97;44.31;94869.09;4981340;28;20045;-90
2021/12/16 10:19:08;;;;;;;347.20;222.07;;;;;;;15.98;44.06;94859.69;4964100;28;20137;-89
2021/12/16 10:21:33;;;;;;;336.00;214.90;;;;;;;15.97;43.99;94852.72;4959077;28;20043;-90
2021/12/16 10:23:59;;;;;;;343.13;205.25;;;;;;;16.06;44.13;94865.56;4958969;28;20300;-90
2021/12/16 10:28:52;;;;;;;353.30;218.00;;;;;;;16.04;44.10;94860.56;5133300;23;20129;-90
2021/12/16 10:31:21;;;;;;;337.80;218.15;;;;;;;16.09;44.37;94849.03;5016854;28;20116;-92
2021/12/16 10:34:01;;;;;;;332.02;206.80;;;;;;;16.08;44.76;94852.22;5031203;28;20041;-87
2021/12/16 10:36:31;;;;;;;239.13;135.35;;;;;;;16.00;43.21;94851.81;5065516;23;20040;-93
2021/12/16 10:39:10;;;;;;;285.42;159.15;;;;;;;15.99;43.56;94849.53;5025261;28;20087;-92
2021/12/16 10:41:37;;;;;;;294.67;177.77;;;;;;;15.95;44.02;94848.94;5033303;28;20058;-91
2021/12/16 10:44:17;;;;;;;262.75;159.10;;;;;;;15.94;43.86;94847.44;5045303;28;20037;-92
2021/12/16 10:46:46;;;;;;;294.13;169.10;;;;;;;15.98;43.81;94848.03;5008228;28;20045;-91
2021/12/16 10:49:14;;;;;;;291.85;177.15;;;;;;;16.01;44.19;94845.13;5000709;28;20176;-89
2021/12/16 10:51:44;;;;;;;258.67;159.27;;;;;;;16.01;44.38;94860.75;5034809;28;20041;-89
2021/12/16 10:54:26;;;;;;;311.97;156.57;;;;;;;15.96;43.47;94864.84;5039234;28;20468;-89
2021/12/16 10:57:12;;;;;;;261.13;144.07;;;;;;;16.07;43.87;94859.63;5023694;28;20282;-92
2021/12/16 11:00:09;;;;;;;504.90;190.57;;;;;;;16.06;43.63;94860.09;5047645;28;20052;-89
2021/12/16 11:02:36;;;;;;;330.83;155.77;;;;;;;16.05;44.30;94864.78;4926031;29;20055;-92
2021/12/16 11:05:05;;;;;;;325.48;177.95;;;;;;;16.18;45.03;94861.88;4914506;29;20211;-90
2021/12/16 11:07:36;;;;;;;354.25;180.98;;;;;;;16.16;44.07;94860.84;4905409;29;20182;-93
2021/12/16 11:10:20;;;;;;;302.55;170.13;;;;;;;16.15;44.70;94857.34;4909881;29;20064;-92
2021/12/16 11:12:57;;;;;;;300.50;164.38;;;;;;;16.25;44.30;94855.31;4932222;29;20184;-91
2021/12/16 11:15:37;;;;;;;247.85;133.32;;;;;;;16.25;44.88;94864.25;4930115;29;20043;-91
2021/12/16 11:18:07;;;;;;;304.20;164.57;;;;;;;16.27;44.34;94855.63;4923189;29;20036;-91
2021/12/16 11:20:42;;;;;;;273.63;150.48;;;;;;;16.35;44.24;94859.53;4939150;29;20119;-92
2021/12/16 11:23:16;;;;;;;277.85;142.40;;;;;;;16.39;44.35;94851.94;4923373;29;20083;-91
2021/12/16 11:25:51;;;;;;;286.77;143.60;;;;;;;16.37;44.18;94857.09;4937689;29;20566;-90
2021/12/16 11:28:22;;;;;;;268.13;146.95;;;;;;;16.35;44.10;94857.56;4938690;29;20078;-90
2021/12/16 11:30:56;;;;;;;247.25;134.88;;;;;;;16.30;43.71;94852.72;4978496;23;20042;-89
2021/12/16 11:33:26;;;;;;;248.93;134.65;;;;;;;16.28;43.99;94851.69;5015185;28;20090;-92
2021/12/16 11:35:56;;;;;;;227.57;127.28;;;;;;;16.30;43.93;94849.25;5019979;28;20029;-92
2021/12/16 11:40:58;;;;;;;238.52;132.18;;;;;;;16.27;43.95;94845.47;5086580;23;20050;-89
2021/12/16 11:43:34;;;;;;;211.20;119.85;;;;;;;16.33;43.92;94853.78;5060743;28;20051;-91
2021/12/16 11:46:00;;;;;;;206.38;120.05;;;;;;;16.31;44.13;94848.78;5063287;28;20039;-88
2021/12/16 11:48:29;;;;;;;195.98;111.95;;;;;;;16.34;43.56;94847.88;5030101;28;20041;-90
2021/12/16 11:51:10;;;;;;;181.20;107.80;;;;;;;16.24;44.08;94846.38;5027794;28;20044;-89
2021/12/16 11:53:46;;;;;;;197.10;111.07;;;;;;;16.20;43.81;94848.53;5052115;28;20116;-90
2021/12/16 11:56:14;;;;;;;208.40;123.60;;;;;;;16.16;44.42;94852.66;5024775;28;20067;-89
2021/12/16 11:58:42;;;;;;;185.85;108.13;;;;;;;16.18;44.23;94847.50;5024554;28;20042;-89
2021/12/16 12:01:18;;;;;;;194.48;110.30;;;;;;;16.13;44.16;94835.22;5033669;28;20088;-89
2021/12/16 12:03:47;;;;;;;211.93;111.03;;;;;;;16.11;44.26;94837.66;5014282;28;20042;-91
2021/12/16 12:06:23;;;;;;;202.68;110.03;;;;;;;16.11;44.12;94843.13;5008677;28;20386;-88
2021/12/16 12:08:50;;;;;;;209.85;112.28;;;;;;;16.16;44.28;94844.47;5023786;28;20416;-88
2021/12/16 12:11:31;;;;;;;218.32;109.00;;;;;;;16.16;44.26;94839.75;5004733;28;20046;-90
2021/12/16 12:14:00;;;;;;;225.90;122.20;;;;;;;16.11;44.08;94846.59;5003480;28;20053;-89
2021/12/16 12:16:30;;;;;;;201.25;104.95;;;;;;;16.09;44.11;94842.81;5021523;28;20037;-90
2021/12/16 12:19:15;;;;;;;247.63;111.63;;;;;;;16.15;44.02;94838.25;5026977;28;20041;-87
2021/12/16 12:21:55;;;;;;;202.95;102.35;;;;;;;16.21;44.04;94839.16;5023471;28;20050;-90
2021/12/16 12:24:32;;;;;;;183.73;97.53;;;;;;;16.15;44.52;94837.50;5002536;28;20150;-91
2021/12/16 12:27:02;;;;;;;193.20;103.93;;;;;;;16.14;44.33;94839.47;5012092;28;20052;-88
2021/12/16 12:29:39;;;;;;;220.35;107.50;;;;;;;16.17;44.15;94830.38;5010081;28;20037;-89
2021/12/16 12:32:08;;;;;;;185.10;96.18;;;;;;;16.17;44.07;94840.53;5020624;28;20033;-91
2021/12/16 12:34:35;;;;;;;237.30;129.05;;;;;;;16.12;44.11;94822.81;5026680;28;20501;-89
2021/12/16 12:37:06;;;;;;;185.77;101.43;;;;;;;16.10;44.60;94830.69;5043814;28;20040;-92
2021/12/16 12:39:38;;;;;;;213.70;109.03;;;;;;;16.15;44.33;94832.78;4989413;28;20042;-88
2021/12/16 12:42:06;;;;;;;289.98;165.27;;;;;;;16.19;44.34;94829.91;5004827;28;20053;-91
2021/12/16 12:44:31;;;;;;;207.75;118.55;;;;;;;16.22;44.34;94837.94;5004389;28;20033;-90
2021/12/16 12:47:00;;;;;;;203.77;105.18;;;;;;;16.14;44.77;94844.16;5000325;28;20038;-90
2021/12/16 12:49:29;;;;;;;217.05;110.82;;;;;;;16.16;44.40;94834.31;4998459;28;20038;-90
2021/12/16 12:52:08;;;;;;;266.23;145.98;;;;;;;16.15;44.16;94827.34;4999261;28;20056;-90
2021/12/16 12:54:34;;;;;;;237.07;123.43;;;;;;;16.15;44.47;94845.69;5018707;28;20042;-89
2021/12/16 12:57:22;;;;;;;247.13;126.47;;;;;;;16.18;44.23;94850.22;5004589;28;20076;-91
2021/12/16 12:59:47;;;;;;;234.15;126.28;;;;;;;16.13;44.46;94839.94;5034282;28;20076;-88
2021/12/16 13:02:34;;;;;;;228.38;125.93;;;;;;;16.13;44.30;94837.94;5010408;28;20385;-89
2021/12/16 13:05:06;;;;;;;242.70;132.00;;;;;;;16.09;44.51;94843.56;5010470;28;20037;-91
2021/12/16 13:07:35;;;;;;;250.27;128.32;;;;;;;16.11;44.29;94848.56;5005559;28;20034;-86
2021/12/16 13:10:06;;;;;;;318.60;144.68;;;;;;;16.08;44.25;94844.78;5036405;28;20063;-89
2021/12/16 13:12:37;;;;;;;328.63;155.52;;;;;;;16.14;43.82;94842.19;5029937;28;20059;-86
2021/12/16 13:15:19;;;;;;;281.58;145.15;;;;;;;16.12;43.99;94836.44;5056415;28;20066;-87
2021/12/16 13:23:29;;;;;;;332.70;189.70;;;;;;;16.16;44.14;94830.81;5032568;28;20064;-89
2021/12/16 13:29:16;;;;;;;387.45;225.55;;;;;;;16.13;44.35;94832.50;5037892;28;20093;-92
2021/12/16 13:34:54;;;;;;;403.70;237.50;;;;;;;16.13;43.96;94856.28;5033780;28;20036;-88
2021/12/16 13:37:29;;;;;;;402.67;230.18;;;;;;;16.08;43.55;94844.78;5060164;28;20048;-88
2021/12/16 13:39:59;;;;;;;403.05;236.48;;;;;;;16.15;43.94;94835.53;5039482;28;20056;-89
2021/12/16 13:42:25;;;;;;;358.87;219.67;;;;;;;16.21;43.87;94835.66;5024572;28;20041;-90
2021/12/16 13:44:57;;;;;;;370.85;221.77;;;;;;;16.24;44.08;94845.66;5041834;28;20625;-92
2021/12/16 13:47:37;;;;;;;401.15;239.88;;;;;;;16.24;44.08;94840.19;5023860;28;20050;-89
2021/12/16 14:07:27;;;;;;;335.58;195.60;;;;;;;16.18;43.99;94845.53;5027646;28;20043;-85
2021/12/16 14:10:08;;;;;;;296.55;172.13;;;;;;;16.17;44.02;94862.34;5063296;28;20041;-86
2021/12/16 14:23:10;;;;;;;341.73;192.70;;;;;;;16.19;44.38;94862.66;5070341;28;20055;-84
2021/12/16 14:25:52;;;;;;;353.60;199.55;;;;;;;16.16;44.27;94860.84;5036359;28;20048;-85
2021/12/16 14:31:10;;;;;;;317.58;183.15;;;;;;;16.19;44.13;94857.19;5037349;28;20047;-84
2021/12/16 14:47:57;;;;;;;300.77;166.07;;;;;;;16.14;44.34;94852.34;5013322;28;20064;-85
2021/12/16 14:50:28;;;;;;;325.95;172.93;;;;;;;16.18;44.08;94861.13;5030383;28;20053;-83
2021/12/16 14:52:55;;;;;;;301.25;160.18;;;;;;;16.17;44.33;94862.34;5028898;28;20045;-84
2021/12/16 14:55:20;;;;;;;280.27;155.80;;;;;;;16.17;44.57;94859.63;5011133;28;20073;-86
2021/12/16 14:57:48;;;;;;;288.13;155.45;;;;;;;16.28;43.88;94862.59;5003051;28;20133;-85
2021/12/16 15:00:17;;;;;;;284.30;154.55;;;;;;;16.20;44.23;94873.09;4994323;28;20076;-84